Overlook, Kentucky
Current Conditions -  °F | °C
As of 10:35 PM on Thursday 18 Dec 2014 (Local Time) from K5M9 Reporting Station
Overcast Overcast  
Wind Chill: 32°   Ceiling: 5000
Heat Index: 32°   Visibility: 10mi
Dew Point: 28°   Wind: 3mph
Humidity: 87%   Direction: 10°N
Pressure: 30.27"   Gusts: NA
Location:  37.0504°N, 88.0159°W
Report Text: K5M9 190435Z AUTO 01003KT 10SM OVC050 00/M02 A3027 RMK AO2 T10011021
Loading
Personal Weather Stations






























Interactive Weather Map New forecast layout! Learn more

10-Day Weather Forecast

Advertisements
Track Severe Weather on mobile